createdAt,value
2022-11-02T00:01:40.733Z,14.10
2022-11-02T00:04:07.928Z,14.40
2022-11-02T00:06:34.697Z,14.02
2022-11-02T00:09:01.475Z,18.40
2022-11-02T00:11:28.302Z,16.77
2022-11-02T00:13:55.087Z,14.63
2022-11-02T00:16:23.010Z,14.50
2022-11-02T00:18:53.125Z,14.07
2022-11-02T00:21:21.754Z,15.20
2022-11-02T00:23:49.335Z,15.25
2022-11-02T00:26:16.822Z,15.65
2022-11-02T00:28:44.738Z,13.00
2022-11-02T00:31:11.540Z,14.55
2022-11-02T00:33:38.363Z,14.68
2022-11-02T00:36:05.667Z,16.70
2022-11-02T00:38:32.832Z,15.40
2022-11-02T00:41:00.043Z,15.73
2022-11-02T00:43:26.866Z,13.80
2022-11-02T00:45:53.576Z,15.55
2022-11-02T00:48:20.409Z,15.10
2022-11-02T00:50:47.681Z,15.20
2022-11-02T00:53:14.533Z,14.38
2022-11-02T00:55:41.302Z,13.23
2022-11-02T00:58:08.350Z,13.73
2022-11-02T01:00:35.284Z,14.10
2022-11-02T01:03:02.750Z,11.55
2022-11-02T01:05:30.281Z,12.30
2022-11-02T01:07:57.195Z,12.40
2022-11-02T01:10:26.185Z,12.85
2022-11-02T01:12:53.426Z,11.57
2022-11-02T01:15:20.607Z,13.25
2022-11-02T01:17:47.451Z,12.68
2022-11-02T01:20:14.682Z,14.02
2022-11-02T01:22:41.478Z,13.70
2022-11-02T01:25:09.200Z,12.75
2022-11-02T01:27:35.962Z,11.45
2022-11-02T01:30:04.554Z,13.20
2022-11-02T01:32:31.313Z,12.88
2022-11-02T01:34:58.071Z,13.20
2022-11-02T01:37:24.867Z,12.07
2022-11-02T01:39:51.579Z,12.40
2022-11-02T01:42:20.626Z,11.55
2022-11-02T01:44:47.807Z,10.93
2022-11-02T01:47:19.287Z,7.78
2022-11-02T01:49:48.892Z,7.45
2022-11-02T01:52:20.224Z,7.80
2022-11-02T01:54:58.853Z,8.68
2022-11-02T01:57:27.368Z,8.68
2022-11-02T02:00:04.001Z,9.75
2022-11-02T02:02:32.506Z,10.02
2022-11-02T02:05:04.467Z,11.07
2022-11-02T02:07:33.032Z,10.13
2022-11-02T02:10:01.773Z,11.65
2022-11-02T02:12:30.364Z,10.25
2022-11-02T02:14:57.491Z,9.18
2022-11-02T02:17:30.613Z,10.52
2022-11-02T02:20:15.345Z,9.15
2022-11-02T02:23:19.804Z,9.57
2022-11-02T02:26:11.016Z,9.35
2022-11-02T02:28:43.757Z,9.38
2022-11-02T02:31:20.571Z,10.07
2022-11-02T02:34:01.361Z,10.27
2022-11-02T02:36:49.638Z,9.65
2022-11-02T02:39:46.565Z,9.48
2022-11-02T02:42:31.849Z,8.48
2022-11-02T02:45:18.678Z,9.55
2022-11-02T02:47:55.984Z,9.85
2022-11-02T02:50:27.737Z,10.10
2022-11-02T02:52:57.018Z,9.23
2022-11-02T02:55:29.520Z,9.00
2022-11-02T02:57:58.325Z,8.30
2022-11-02T03:00:25.591Z,9.85
2022-11-02T03:03:01.560Z,10.32
2022-11-02T03:05:33.989Z,9.90
2022-11-02T03:08:07.059Z,8.38
2022-11-02T03:10:40.294Z,7.07
2022-11-02T03:13:15.248Z,6.50
2022-11-02T03:15:47.783Z,5.97
2022-11-02T03:18:42.327Z,5.30
2022-11-02T03:21:31.452Z,6.82
2022-11-02T03:24:13.522Z,4.55
2022-11-02T03:27:15.790Z,6.22
2022-11-02T03:30:14.606Z,6.63
2022-11-02T03:32:48.906Z,7.13
2022-11-02T03:35:22.574Z,5.40
2022-11-02T03:38:01.583Z,6.35
2022-11-02T03:40:45.501Z,6.13
2022-11-02T03:43:15.450Z,5.90
2022-11-02T03:45:55.249Z,5.70
2022-11-02T03:48:26.756Z,6.07
2022-11-02T03:50:54.769Z,6.95
2022-11-02T03:53:37.800Z,6.15
2022-11-02T03:56:09.457Z,6.78
2022-11-02T03:58:36.741Z,7.70
2022-11-02T04:01:10.246Z,8.32
2022-11-02T04:03:45.051Z,9.77
2022-11-02T04:06:15.315Z,9.32
2022-11-02T04:08:46.169Z,8.27
2022-11-02T04:11:34.225Z,7.75
2022-11-02T04:14:19.987Z,6.57
2022-11-02T04:16:46.936Z,6.10
2022-11-02T04:19:28.678Z,6.93
2022-11-02T04:22:15.155Z,6.30
2022-11-02T04:25:01.754Z,5.32
2022-11-02T04:27:28.633Z,6.15
2022-11-02T04:29:55.414Z,5.53
2022-11-02T04:32:41.104Z,5.53
2022-11-02T04:35:08.537Z,6.25
2022-11-02T04:38:01.587Z,5.43
2022-11-02T04:40:28.914Z,5.15
2022-11-02T04:42:58.930Z,4.68
2022-11-02T04:45:25.677Z,4.80
2022-11-02T04:47:52.441Z,6.05
2022-11-02T04:50:19.524Z,5.85
2022-11-02T04:52:46.661Z,6.57
2022-11-02T04:55:13.430Z,6.70
2022-11-02T04:57:45.156Z,8.10
2022-11-02T05:00:12.625Z,8.95
2022-11-02T05:02:39.563Z,8.20
2022-11-02T05:05:06.817Z,9.05
2022-11-02T05:07:34.112Z,7.90
2022-11-02T05:10:01.256Z,7.53
2022-11-02T05:12:29.413Z,8.23
2022-11-02T05:14:56.245Z,8.18
2022-11-02T05:17:23.481Z,7.07
2022-11-02T05:19:50.351Z,6.68
2022-11-02T05:22:17.141Z,7.70
2022-11-02T05:24:43.951Z,6.97
2022-11-02T05:27:10.798Z,6.35
2022-11-02T05:29:37.944Z,7.30
2022-11-02T05:32:04.961Z,10.68
2022-11-02T05:34:31.794Z,7.20
2022-11-02T05:36:58.832Z,7.00
2022-11-02T05:39:25.589Z,6.47
2022-11-02T05:41:52.339Z,7.65
2022-11-02T05:44:19.186Z,7.93
2022-11-02T05:46:45.915Z,7.65
2022-11-02T05:49:12.668Z,8.32
2022-11-02T05:51:39.397Z,7.18
2022-11-02T05:54:06.520Z,10.40
2022-11-02T05:56:33.333Z,6.90
2022-11-02T05:59:00.091Z,7.60
2022-11-02T06:01:26.893Z,7.65
2022-11-02T06:03:54.533Z,6.82
2022-11-02T06:06:22.028Z,8.20
2022-11-02T06:08:48.797Z,5.97
2022-11-02T06:11:16.408Z,6.55
2022-11-02T06:13:43.345Z,7.22
2022-11-02T06:16:12.049Z,7.57
2022-11-02T06:18:39.481Z,7.30
2022-11-02T06:21:06.579Z,6.07
2022-11-02T06:23:33.989Z,6.53
2022-11-02T06:26:01.992Z,9.32
2022-11-02T06:28:29.596Z,6.60
2022-11-02T06:30:56.747Z,6.43
2022-11-02T06:33:23.912Z,9.98
2022-11-02T06:35:55.129Z,8.98
2022-11-02T06:38:22.251Z,11.20
2022-11-02T06:41:00.345Z,11.55
2022-11-02T06:43:27.581Z,10.52
2022-11-02T06:45:55.913Z,9.32
2022-11-02T06:48:23.089Z,8.23
2022-11-02T06:50:49.821Z,9.48
2022-11-02T06:53:16.669Z,8.32
2022-11-02T06:55:44.100Z,11.27
2022-11-02T06:58:11.282Z,9.13
2022-11-02T07:00:38.048Z,9.20
2022-11-02T07:03:10.212Z,8.27
2022-11-02T07:05:37.972Z,7.22
2022-11-02T07:08:04.911Z,7.55
2022-11-02T07:10:32.026Z,6.80
2022-11-02T07:12:58.814Z,7.07
2022-11-02T07:15:27.239Z,7.35
2022-11-02T07:17:54.397Z,6.93
2022-11-02T07:20:22.157Z,7.10
2022-11-02T07:23:00.113Z,6.00
2022-11-02T07:25:31.065Z,7.35
2022-11-02T07:28:01.519Z,6.07
2022-11-02T07:30:30.386Z,6.50
2022-11-02T07:32:57.299Z,5.40
2022-11-02T07:35:24.635Z,6.75
2022-11-02T07:37:59.982Z,6.85
2022-11-02T07:40:28.593Z,6.70
2022-11-02T07:42:56.015Z,7.05
2022-11-02T07:45:24.226Z,7.55
2022-11-02T07:47:51.600Z,8.43
2022-11-02T07:50:20.871Z,8.55
2022-11-02T07:52:49.696Z,10.05
2022-11-02T07:55:18.469Z,9.80
2022-11-02T07:57:54.539Z,11.45
2022-11-02T08:00:21.837Z,10.20
2022-11-02T08:02:49.097Z,10.95
2022-11-02T08:05:16.099Z,9.63
2022-11-02T08:07:43.493Z,11.98
2022-11-02T08:10:10.290Z,11.15
2022-11-02T08:12:37.032Z,9.55
2022-11-02T08:15:07.584Z,9.60
2022-11-02T08:17:35.231Z,11.25
2022-11-02T08:20:02.048Z,11.55
2022-11-02T08:22:28.871Z,9.68
2022-11-02T08:24:55.655Z,11.45
2022-11-02T08:27:22.422Z,9.90
2022-11-02T08:29:49.189Z,9.43
2022-11-02T08:32:15.910Z,11.77
2022-11-02T08:34:43.094Z,8.95
2022-11-02T08:37:09.924Z,9.55
2022-11-02T08:39:36.793Z,9.63
2022-11-02T08:42:03.665Z,9.52
2022-11-02T08:44:30.408Z,9.88
2022-11-02T08:46:57.683Z,10.43
2022-11-02T08:49:24.486Z,9.68
2022-11-02T08:51:51.231Z,10.05
2022-11-02T08:54:17.937Z,9.90
2022-11-02T08:56:44.736Z,10.50
2022-11-02T08:59:12.001Z,9.82
2022-11-02T09:01:39.334Z,8.23
2022-11-02T09:04:06.650Z,8.10
2022-11-02T09:06:33.492Z,7.35
2022-11-02T09:09:00.332Z,7.85
2022-11-02T09:11:27.637Z,7.30
2022-11-02T09:13:57.100Z,6.57
2022-11-02T09:16:24.176Z,6.82
2022-11-02T09:18:51.327Z,8.52
2022-11-02T09:21:18.465Z,7.20
2022-11-02T09:23:48.569Z,6.82
2022-11-02T09:26:16.129Z,6.75
2022-11-02T09:28:43.011Z,6.78
2022-11-02T09:31:11.637Z,6.15
2022-11-02T09:33:39.019Z,6.28
2022-11-02T09:36:06.333Z,6.72
2022-11-02T09:38:33.632Z,7.65
2022-11-02T09:41:32.828Z,5.78
2022-11-02T09:44:03.528Z,6.20
2022-11-02T09:46:43.310Z,6.05
2022-11-02T09:49:19.968Z,5.70
2022-11-02T09:51:48.857Z,6.10
2022-11-02T09:54:23.490Z,6.35
2022-11-02T09:56:52.501Z,6.63
2022-11-02T09:59:21.809Z,5.40
2022-11-02T10:02:02.537Z,6.55
2022-11-02T10:04:50.217Z,6.00
2022-11-02T10:07:48.470Z,6.18
2022-11-02T10:10:43.126Z,5.60
2022-11-02T10:13:18.988Z,5.88
2022-11-02T10:15:54.526Z,6.55
2022-11-02T10:18:26.455Z,6.30
2022-11-02T10:21:02.503Z,5.50
2022-11-02T10:23:34.594Z,5.38
2022-11-02T10:26:02.899Z,5.53
2022-11-02T10:28:34.358Z,5.28
2022-11-02T10:31:04.430Z,4.88
2022-11-02T10:33:31.554Z,4.45
2022-11-02T10:36:21.637Z,4.15
2022-11-02T10:38:51.162Z,5.10
2022-11-02T10:41:20.737Z,4.35
2022-11-02T10:44:01.665Z,4.30
2022-11-02T10:46:48.387Z,4.32
2022-11-02T10:49:40.325Z,4.35
2022-11-02T10:52:10.368Z,4.25
2022-11-02T10:54:37.475Z,4.45
2022-11-02T10:57:14.706Z,4.97
2022-11-02T10:59:41.454Z,4.28
2022-11-02T11:02:15.022Z,4.00
2022-11-02T11:04:42.524Z,3.50
2022-11-02T11:07:26.500Z,3.33
2022-11-02T11:09:57.502Z,3.50
2022-11-02T11:12:32.069Z,2.40
2022-11-02T11:20:38.537Z,2.00
2022-11-02T11:23:23.250Z,2.63
2022-11-02T11:26:00.550Z,1.95
2022-11-02T11:28:37.436Z,1.90
2022-11-02T11:31:16.617Z,1.98
2022-11-02T11:33:56.430Z,2.63
2022-11-02T11:36:30.917Z,2.75
2022-11-02T11:39:26.154Z,2.83
2022-11-02T11:41:53.029Z,2.40
2022-11-02T11:44:21.140Z,2.05
2022-11-02T11:46:57.536Z,2.55
2022-11-02T11:52:36.481Z,2.38
2022-11-02T11:55:20.383Z,2.17
2022-11-02T11:58:05.779Z,2.88
2022-11-02T12:00:32.995Z,2.40
2022-11-02T12:03:11.841Z,3.17
2022-11-02T12:05:58.965Z,3.58
2022-11-02T12:09:00.208Z,3.58
2022-11-02T12:11:49.677Z,2.90
2022-11-02T12:14:43.281Z,3.15
2022-11-02T12:17:15.954Z,2.75
2022-11-02T12:20:18.996Z,3.42
2022-11-02T12:23:04.931Z,3.33
2022-11-02T12:26:01.609Z,2.47
2022-11-02T12:28:59.305Z,2.50
2022-11-02T12:31:42.933Z,2.55
2022-11-02T12:34:09.675Z,2.60
2022-11-02T12:40:04.841Z,2.58
2022-11-02T12:42:49.816Z,2.60
2022-11-02T12:45:34.720Z,2.22
2022-11-02T12:48:05.597Z,2.40
2022-11-02T12:50:53.607Z,2.50
2022-11-02T12:53:39.639Z,2.65
2022-11-02T12:56:12.064Z,2.83
2022-11-02T12:58:40.964Z,2.80
2022-11-02T13:01:21.997Z,2.97
2022-11-02T13:04:13.961Z,3.05
2022-11-02T13:06:49.828Z,3.50
2022-11-02T13:09:16.521Z,3.80
2022-11-02T13:11:53.025Z,3.95
2022-11-02T13:14:22.217Z,3.35
2022-11-02T13:17:22.089Z,3.60
2022-11-02T13:20:04.833Z,3.40
2022-11-02T13:22:38.246Z,3.40
2022-11-02T13:25:23.320Z,3.42
2022-11-02T13:28:00.113Z,3.47
2022-11-02T13:30:32.749Z,3.33
2022-11-02T13:33:18.816Z,2.80
2022-11-02T13:35:46.323Z,3.97
2022-11-02T13:38:13.043Z,3.45
2022-11-02T13:40:51.716Z,3.40
2022-11-02T13:43:30.459Z,2.75
2022-11-02T13:46:11.637Z,3.30
2022-11-02T13:48:48.587Z,2.72
2022-11-02T13:51:40.866Z,3.65
2022-11-02T13:54:21.566Z,3.42
2022-11-02T13:56:53.821Z,3.20
2022-11-02T13:59:25.837Z,3.03
2022-11-02T14:01:54.498Z,3.75
2022-11-02T14:04:22.122Z,3.03
2022-11-02T14:06:51.411Z,2.92
2022-11-02T14:09:29.831Z,3.00
2022-11-02T14:12:17.891Z,3.17
2022-11-02T14:14:45.689Z,4.15
2022-11-02T14:17:18.588Z,3.08
2022-11-02T14:19:48.046Z,2.85
2022-11-02T14:22:16.549Z,3.33
2022-11-02T14:24:43.249Z,2.90
2022-11-02T14:27:10.434Z,3.10
2022-11-02T14:29:46.359Z,3.95
2022-11-02T14:32:28.019Z,2.75
2022-11-02T14:35:26.795Z,2.58
2022-11-02T14:38:12.045Z,3.58
2022-11-02T14:41:08.161Z,4.15
2022-11-02T14:44:01.871Z,4.38
2022-11-02T14:46:49.959Z,5.43
2022-11-02T14:49:35.545Z,5.47
2022-11-02T14:52:13.477Z,5.43
2022-11-02T14:54:48.679Z,7.10
2022-11-02T14:57:34.716Z,6.72
2022-11-02T15:00:28.626Z,6.85
2022-11-02T15:02:57.176Z,8.00
2022-11-02T15:05:30.160Z,7.18
2022-11-02T15:08:09.382Z,7.43
2022-11-02T15:10:40.657Z,7.82
2022-11-02T15:13:19.662Z,8.43
2022-11-02T15:15:55.750Z,8.18
2022-11-02T15:18:34.560Z,7.43
2022-11-02T15:21:10.319Z,9.00
2022-11-02T15:23:55.971Z,9.23
2022-11-02T15:26:44.391Z,9.40
2022-11-02T15:29:24.476Z,11.05
2022-11-02T15:31:57.491Z,11.82
2022-11-02T15:34:47.374Z,11.82
2022-11-02T15:37:22.189Z,11.35
2022-11-02T15:40:04.397Z,11.45
2022-11-02T15:43:00.586Z,13.35
2022-11-02T15:45:51.863Z,12.00
2022-11-02T15:48:23.449Z,12.77
2022-11-02T15:51:02.462Z,10.90
2022-11-02T15:54:07.238Z,11.63
2022-11-02T15:56:36.999Z,11.80
2022-11-02T15:59:12.968Z,10.32
2022-11-02T16:01:40.872Z,10.10
2022-11-02T16:06:44.141Z,12.77
2022-11-02T16:09:39.138Z,11.32
2022-11-02T16:12:18.849Z,11.02
2022-11-02T16:14:58.330Z,11.65
2022-11-02T16:17:30.253Z,9.68
2022-11-02T16:20:21.839Z,9.23
2022-11-02T16:22:51.308Z,11.63
2022-11-02T16:25:25.341Z,11.35
2022-11-02T16:27:52.543Z,15.75
2022-11-02T16:30:21.846Z,11.52
2022-11-02T16:32:52.693Z,16.00
2022-11-02T16:35:21.456Z,16.15
2022-11-02T16:37:49.819Z,15.55
2022-11-02T16:40:18.573Z,15.45
2022-11-02T16:42:51.748Z,17.02
2022-11-02T16:45:42.115Z,17.10
2022-11-02T16:48:35.256Z,13.75
2022-11-02T16:51:14.594Z,13.02
2022-11-02T16:53:42.279Z,13.65
2022-11-02T16:56:28.117Z,14.88
2022-11-02T16:59:06.056Z,13.48
2022-11-02T17:01:38.953Z,12.75
2022-11-02T17:04:17.963Z,16.40
2022-11-02T17:06:45.557Z,17.73
2022-11-02T17:09:32.864Z,18.60
2022-11-02T17:12:06.458Z,21.90
2022-11-02T17:14:33.660Z,15.35
2022-11-02T17:17:27.002Z,20.23
2022-11-02T17:20:05.320Z,46.60
2022-11-02T17:22:36.549Z,46.72
2022-11-02T17:25:10.339Z,54.97
2022-11-02T17:27:39.495Z,37.80
2022-11-02T17:30:35.072Z,28.95
2022-11-02T17:33:42.725Z,29.15
2022-11-02T17:36:09.940Z,26.25
2022-11-02T17:38:36.933Z,31.67
2022-11-02T17:41:24.436Z,31.90
2022-11-02T17:43:51.678Z,36.13
2022-11-02T17:46:18.793Z,37.95
2022-11-02T17:48:45.942Z,34.88
2022-11-02T17:51:12.915Z,40.00
2022-11-02T17:53:39.648Z,48.22
2022-11-02T17:56:06.618Z,31.65
2022-11-02T17:58:33.799Z,29.38
2022-11-02T18:01:02.432Z,29.17
2022-11-02T18:03:31.372Z,30.45
2022-11-02T18:06:00.253Z,29.85
2022-11-02T18:08:27.610Z,28.77
2022-11-02T18:10:54.550Z,33.03
2022-11-02T18:13:23.070Z,30.63
2022-11-02T18:15:50.364Z,46.83
2022-11-02T18:18:17.124Z,51.85
2022-11-02T18:20:44.453Z,41.95
2022-11-02T18:23:16.618Z,33.03
2022-11-02T18:25:43.886Z,24.23
2022-11-02T18:28:11.202Z,25.73
2022-11-02T18:30:43.163Z,23.35
2022-11-02T18:33:13.396Z,25.90
2022-11-02T18:35:42.225Z,28.90
2022-11-02T18:38:09.733Z,26.65
2022-11-02T18:40:36.495Z,25.73
2022-11-02T18:43:03.701Z,29.38
2022-11-02T18:45:31.268Z,27.13
2022-11-02T18:47:58.158Z,29.98
2022-11-02T18:50:25.362Z,25.65
2022-11-02T18:52:52.403Z,24.98
2022-11-02T18:55:19.250Z,24.38
2022-11-02T18:57:46.380Z,30.15
2022-11-02T19:00:13.901Z,27.33
2022-11-02T19:02:41.152Z,27.85
2022-11-02T19:05:28.146Z,27.65
2022-11-02T19:08:13.724Z,27.23
2022-11-02T19:10:41.515Z,35.97
2022-11-02T19:13:08.547Z,41.42
2022-11-02T19:15:41.316Z,33.85
2022-11-02T19:18:09.366Z,39.22
2022-11-02T19:20:36.697Z,34.65
2022-11-02T19:23:03.665Z,31.98
2022-11-02T19:25:30.402Z,39.90
2022-11-02T19:27:57.254Z,31.33
2022-11-02T19:30:24.440Z,25.95
2022-11-02T19:32:51.648Z,27.15
2022-11-02T19:35:18.404Z,34.13
2022-11-02T19:37:45.208Z,30.40
2022-11-02T19:40:12.252Z,34.75
2022-11-02T19:42:39.842Z,41.05
2022-11-02T19:45:07.099Z,31.60
2022-11-02T19:47:34.341Z,30.30
2022-11-02T19:50:01.200Z,29.80
2022-11-02T19:52:27.952Z,30.83
2022-11-02T19:54:54.714Z,27.92
2022-11-02T19:57:21.498Z,30.05
2022-11-02T19:59:48.255Z,29.73
2022-11-02T20:02:15.791Z,33.65
2022-11-02T20:04:44.271Z,30.77
2022-11-02T20:07:11.565Z,33.58
2022-11-02T20:09:38.746Z,36.80
2022-11-02T20:12:07.620Z,38.28
2022-11-02T20:14:36.341Z,32.95
2022-11-02T20:17:29.483Z,37.53
2022-11-02T20:19:50.300Z,30.08
2022-11-02T20:22:18.454Z,32.85
2022-11-02T20:24:45.206Z,34.50
2022-11-02T20:27:13.893Z,32.15
2022-11-02T20:29:40.735Z,36.20
2022-11-02T20:32:10.217Z,32.92
2022-11-02T20:34:37.181Z,35.10
2022-11-02T20:37:05.105Z,34.65
2022-11-02T20:39:32.294Z,39.30
2022-11-02T20:41:59.801Z,39.03
2022-11-02T20:44:26.625Z,37.20
2022-11-02T20:46:53.754Z,36.90
2022-11-02T20:49:48.332Z,38.90
2022-11-02T20:52:10.052Z,37.85
2022-11-02T20:54:36.818Z,36.83
2022-11-02T20:57:03.649Z,37.42
2022-11-02T20:59:30.510Z,39.08
2022-11-02T21:01:57.816Z,37.33
2022-11-02T21:04:25.228Z,38.42
2022-11-02T21:06:52.001Z,34.28
2022-11-02T21:09:19.366Z,31.67
2022-11-02T21:12:05.225Z,33.03
2022-11-02T21:14:31.938Z,30.13
2022-11-02T21:16:58.867Z,28.70
2022-11-02T21:19:25.642Z,30.15
2022-11-02T21:21:58.148Z,28.10
2022-11-02T21:24:27.026Z,26.75
2022-11-02T21:26:54.334Z,31.15
2022-11-02T21:29:21.529Z,26.58
2022-11-02T21:31:48.793Z,16.15
2022-11-02T21:34:15.664Z,14.80
2022-11-02T21:36:42.374Z,16.08
2022-11-02T21:39:09.541Z,18.35
2022-11-02T21:41:38.483Z,19.45
2022-11-02T21:44:06.961Z,22.45
2022-11-02T21:46:34.221Z,20.77
2022-11-02T21:49:01.211Z,22.83
2022-11-02T21:51:28.540Z,29.80
2022-11-02T21:53:56.728Z,29.65
2022-11-02T21:56:27.960Z,29.42
2022-11-02T21:58:55.985Z,29.35
2022-11-02T22:01:48.406Z,30.15
2022-11-02T22:04:31.937Z,30.63
2022-11-02T22:07:00.250Z,34.05
2022-11-02T22:09:28.316Z,34.53
2022-11-02T22:12:14.730Z,30.15
2022-11-02T22:14:42.421Z,34.38
2022-11-02T22:17:16.504Z,36.33
2022-11-02T22:19:50.800Z,33.15
2022-11-02T22:22:18.738Z,33.88
2022-11-02T22:24:45.668Z,38.65
2022-11-02T22:27:12.452Z,33.83
2022-11-02T22:29:39.230Z,31.88
2022-11-02T22:32:06.252Z,27.30
2022-11-02T22:34:33.424Z,27.95
2022-11-02T22:37:20.159Z,28.48
2022-11-02T22:39:46.980Z,33.88
2022-11-02T22:42:14.110Z,32.10
2022-11-02T22:44:41.182Z,30.77
2022-11-02T22:47:07.876Z,29.45
2022-11-02T22:49:36.266Z,32.22
2022-11-02T22:52:03.197Z,32.17
2022-11-02T22:54:30.362Z,33.80
2022-11-02T22:56:57.485Z,33.58
2022-11-02T22:59:24.251Z,32.03
2022-11-02T23:01:51.377Z,28.27
2022-11-02T23:04:18.444Z,20.75
2022-11-02T23:06:45.589Z,19.05
2022-11-02T23:09:12.385Z,15.45
2022-11-02T23:11:39.467Z,11.82
2022-11-02T23:14:13.428Z,13.77
2022-11-02T23:16:42.714Z,11.80
2022-11-02T23:19:27.125Z,11.27
2022-11-02T23:22:27.926Z,10.70
2022-11-02T23:25:13.828Z,11.07
2022-11-02T23:27:59.094Z,12.35
2022-11-02T23:30:49.420Z,11.25
2022-11-02T23:33:16.933Z,12.30
2022-11-02T23:36:02.831Z,10.45
2022-11-02T23:38:48.161Z,9.38
2022-11-02T23:41:15.791Z,9.60
2022-11-02T23:43:43.018Z,11.90
2022-11-02T23:46:10.267Z,11.90
2022-11-02T23:48:37.008Z,10.85
2022-11-02T23:51:23.024Z,10.07
2022-11-02T23:54:08.494Z,10.70
2022-11-02T23:56:44.646Z,11.85
2022-11-02T23:59:11.897Z,9.80
